METAR AND TAF INFORMATION
METAR FOR ETMN
ADDS - METARS form results

(1205 UTC 27 June 2019)
Data provider http://aviationweather.gov/metar/data/
 
METAR text: ETMN 271145Z 31013KT 9999 SCT014 BKN019 16/10 Q1027 WHT WHT TEMPO GRN
Conditions at: ETMN (NORDHOLZ (GER-NA, DE) observed 1145 UTC 27 June 2019
Temperature: 16.0°C (61°F)
Dewpoint: 10.0°C (50°F) [RH = 68%]
Pressure (altimeter): 30.32 inches Hg (1027.0 mb)
Winds: from the NW (310 degrees) at 15 MPH (13 knots; 6.7 m/s)
Visibility: 6 or more miles (10+ km)
Ceiling: 1900 feet AGL
Clouds: scattered clouds at 1400 feet AGL
broken clouds at 1900 feet AGL
Weather: no significant weather observed at this time

METAR text: ETMN 271120Z 31014KT 9999 -DZ BKN014 BKN023 15/11 Q1027 GRN WHT TEMPO GRN
Conditions at: ETMN (NORDHOLZ (GER-NA, DE) observed 1120 UTC 27 June 2019
Temperature: 15.0°C (59°F)
Dewpoint: 11.0°C (52°F) [RH = 77%]
Pressure (altimeter): 30.32 inches Hg (1027.0 mb)
Winds: from the NW (310 degrees) at 16 MPH (14 knots; 7.2 m/s)
Visibility: 6 or more miles (10+ km)
Ceiling: 1400 feet AGL
Clouds: broken clouds at 1400 feet AGL
broken clouds at 2300 feet AGL
Weather: -DZ  (light drizzle)

Forecast for: ETMN (NORDHOLZ (GER-NA, DE)
Text: TAF ETMN 271001Z 2711/2720 33015G25KT 9999 NSW FEW008 BKN015
Forecast period: 1100 to 2000 UTC 27 June 2019
Forecast type: FROM: standard forecast or significant change
Winds: from the NNW (330 degrees) at 17 MPH (15 knots; 7.7 m/s)
gusting to 29 MPH (25 knots; 12.9 m/s)
Visibility: 6 or more miles 10+ km)
Ceiling: 1500 feet AGL
Clouds: few clouds at 800 feet AGL
broken clouds at 1500 feet AGL
Weather: NSW  (no significant weather)
Text: TEMPO 2711/2714 33015G28KT 4000 -DZ SCT006 BKN010
Forecast period: 1100 to 1400 UTC 27 June 2019
Forecast type: TEMPORARY: The following changes expected for less than half the time period
Winds: from the NNW (330 degrees) at 17 MPH (15 knots; 7.7 m/s)
gusting to 32 MPH (28 knots; 14.4 m/s)
Visibility: 2.49 miles (4.01 km)
Ceiling: 1000 feet AGL
Clouds: scattered clouds at 600 feet AGL
broken clouds at 1000 feet AGL
Weather: -DZ  (light drizzle)

 AIRPORT MAP

 RUNWAY INFORMATION
Runway 08 Runway length 8002 ft Runway width 148 ft
Runway elevation 69 ft Runway displaced threshold 0 ft Runway heading 78
Runway 26 Runway length 8002 ft Runway width 148 ft
Runway elevation 39 ft Runway displaced threshold 0 ft Runway heading 258

 AIRPORT FREQUENCIES
Type A/D Name RADAR Frequency 35.612 MHZ
Type A/D Name RADAR Frequency 123.3 MHZ
Type ACC Name BREMEN CON Frequency 124.075 MHZ
Type AFIS Name BREMEN INF Frequency 125.1 MHZ
Type OPS Name WING OPS Frequency 28.252 MHZ
Type TWR Name TWR Frequency 122.1 MHZ

 AIRPORT NEAR NAVIGATION AIDS
Type TACAN Name Nordholz Frequency 117100 KHZ
Type NDB Name Nordholz Frequency 372 KHZ